sensor_id;sensor_type;location;lat;lon;timestamp;pressure;altitude;pressure_sealevel;temperature;humidity
23223;BME280;11780;13.904;100.620;2023-02-18T00:02:20;101371.38;;;28.50;59.34
23223;BME280;11780;13.904;100.620;2023-02-18T00:04:53;101384.06;;;28.46;58.82
23223;BME280;11780;13.904;100.620;2023-02-18T00:07:24;101392.63;;;28.45;58.81
23223;BME280;11780;13.904;100.620;2023-02-18T00:12:03;101394.31;;;28.40;59.16
23223;BME280;11780;13.904;100.620;2023-02-18T00:14:34;101398.72;;;28.41;58.96
23223;BME280;11780;13.904;100.620;2023-02-18T00:17:04;101408.41;;;28.34;59.21
23223;BME280;11780;13.904;100.620;2023-02-18T00:19:34;101409.53;;;28.33;59.00
23223;BME280;11780;13.904;100.620;2023-02-18T00:22:04;101412.50;;;28.36;58.93
23223;BME280;11780;13.904;100.620;2023-02-18T00:24:34;101418.31;;;28.35;58.92
23223;BME280;11780;13.904;100.620;2023-02-18T00:27:04;101419.66;;;28.37;59.26
23223;BME280;11780;13.904;100.620;2023-02-18T00:29:34;101429.03;;;28.36;59.07
23223;BME280;11780;13.904;100.620;2023-02-18T00:32:05;101426.00;;;28.38;59.21
23223;BME280;11780;13.904;100.620;2023-02-18T00:34:36;101434.78;;;28.40;59.30
23223;BME280;11780;13.904;100.620;2023-02-18T00:37:06;101437.53;;;28.40;58.96
23223;BME280;11780;13.904;100.620;2023-02-18T00:39:36;101446.84;;;28.44;59.04
23223;BME280;11780;13.904;100.620;2023-02-18T00:42:07;101455.09;;;28.44;59.05
23223;BME280;11780;13.904;100.620;2023-02-18T00:44:37;101455.94;;;28.45;58.97
23223;BME280;11780;13.904;100.620;2023-02-18T00:47:07;101461.19;;;28.41;59.23
23223;BME280;11780;13.904;100.620;2023-02-18T00:49:37;101461.19;;;28.41;58.99
23223;BME280;11780;13.904;100.620;2023-02-18T00:52:09;101466.63;;;28.46;58.65
23223;BME280;11780;13.904;100.620;2023-02-18T00:54:40;101469.16;;;28.42;59.09
23223;BME280;11780;13.904;100.620;2023-02-18T00:57:10;101470.22;;;28.47;58.77
23223;BME280;11780;13.904;100.620;2023-02-18T00:59:40;101473.53;;;28.44;58.91
23223;BME280;11780;13.904;100.620;2023-02-18T01:02:10;101472.13;;;28.46;59.08
23223;BME280;11780;13.904;100.620;2023-02-18T01:04:40;101481.50;;;28.45;59.07
23223;BME280;11780;13.904;100.620;2023-02-18T01:07:10;101482.34;;;28.46;58.91
23223;BME280;11780;13.904;100.620;2023-02-18T01:09:41;101476.84;;;28.46;58.81
23223;BME280;11780;13.904;100.620;2023-02-18T01:12:12;101484.25;;;28.45;59.00
23223;BME280;11780;13.904;100.620;2023-02-18T01:14:43;101488.06;;;28.49;58.88
23223;BME280;11780;13.904;100.620;2023-02-18T01:17:14;101485.84;;;28.51;58.80
23223;BME280;11780;13.904;100.620;2023-02-18T01:19:44;101500.19;;;28.48;59.02
23223;BME280;11780;13.904;100.620;2023-02-18T01:22:14;101493.81;;;28.53;58.89
23223;BME280;11780;13.904;100.620;2023-02-18T01:24:44;101505.41;;;28.50;59.05
23223;BME280;11780;13.904;100.620;2023-02-18T01:27:14;101501.53;;;28.51;58.97
23223;BME280;11780;13.904;100.620;2023-02-18T01:29:44;101506.47;;;28.54;58.94
23223;BME280;11780;13.904;100.620;2023-02-18T01:32:13;101507.66;;;28.48;59.06
23223;BME280;11780;13.904;100.620;2023-02-18T01:34:44;101515.59;;;28.49;59.01
23223;BME280;11780;13.904;100.620;2023-02-18T01:37:15;101521.41;;;28.48;59.08
23223;BME280;11780;13.904;100.620;2023-02-18T01:39:45;101523.28;;;28.52;59.02
23223;BME280;11780;13.904;100.620;2023-02-18T01:42:25;101526.03;;;28.52;59.09
23223;BME280;11780;13.904;100.620;2023-02-18T01:48:09;101536.47;;;28.55;58.99
23223;BME280;11780;13.904;100.620;2023-02-18T01:50:52;101543.94;;;28.50;59.19
23223;BME280;11780;13.904;100.620;2023-02-18T01:53:28;101543.13;;;28.49;59.18
23223;BME280;11780;13.904;100.620;2023-02-18T01:56:02;101549.97;;;28.52;59.17
23223;BME280;11780;13.904;100.620;2023-02-18T01:58:35;101547.53;;;28.50;59.12
23223;BME280;11780;13.904;100.620;2023-02-18T02:01:06;101550.84;;;28.47;59.11
23223;BME280;11780;13.904;100.620;2023-02-18T02:03:38;101545.31;;;28.52;59.27
23223;BME280;11780;13.904;100.620;2023-02-18T02:06:18;101549.72;;;28.48;59.51
23223;BME280;11780;13.904;100.620;2023-02-18T02:08:50;101551.69;;;28.48;59.40
23223;BME280;11780;13.904;100.620;2023-02-18T02:17:16;101558.00;;;28.48;59.44
23223;BME280;11780;13.904;100.620;2023-02-18T02:23:19;101560.97;;;28.52;59.64
23223;BME280;11780;13.904;100.620;2023-02-18T02:29:24;101569.50;;;28.55;59.39
23223;BME280;11780;13.904;100.620;2023-02-18T02:40:27;101569.50;;;28.55;59.20
23223;BME280;11780;13.904;100.620;2023-02-18T02:46:02;101553.22;;;28.59;59.25
23223;BME280;11780;13.904;100.620;2023-02-18T02:48:55;101555.16;;;28.59;59.42
23223;BME280;11780;13.904;100.620;2023-02-18T02:51:43;101564.47;;;28.63;59.59
23223;BME280;11780;13.904;100.620;2023-02-18T02:54:24;101565.03;;;28.60;59.23
23223;BME280;11780;13.904;100.620;2023-02-18T03:00:07;101554.00;;;28.65;59.15
23223;BME280;11780;13.904;100.620;2023-02-18T03:05:47;101562.81;;;28.67;58.94
23223;BME280;11780;13.904;100.620;2023-02-18T03:08:37;101550.44;;;28.64;58.31
23223;BME280;11780;13.904;100.620;2023-02-18T03:11:12;101542.41;;;28.68;58.59
23223;BME280;11780;13.904;100.620;2023-02-18T03:14:16;101552.03;;;28.70;58.62
23223;BME280;11780;13.904;100.620;2023-02-18T03:16:59;101542.13;;;28.69;58.53
23223;BME280;11780;13.904;100.620;2023-02-18T03:19:35;101541.31;;;28.69;58.88
23223;BME280;11780;13.904;100.620;2023-02-18T03:22:12;101546.25;;;28.72;58.75
23223;BME280;11780;13.904;100.620;2023-02-18T03:24:49;101536.88;;;28.73;58.66
23223;BME280;11780;13.904;100.620;2023-02-18T03:27:34;101536.31;;;28.76;58.66
23223;BME280;11780;13.904;100.620;2023-02-18T03:30:11;101541.28;;;28.74;58.42
23223;BME280;11780;13.904;100.620;2023-02-18T03:32:46;101545.66;;;28.75;58.42
23223;BME280;11780;13.904;100.620;2023-02-18T03:35:18;101542.34;;;28.78;58.28
23223;BME280;11780;13.904;100.620;2023-02-18T03:38:58;101541.00;;;28.76;58.26
23223;BME280;11780;13.904;100.620;2023-02-18T03:41:03;101540.44;;;28.79;58.13
23223;BME280;11780;13.904;100.620;2023-02-18T03:43:35;101529.13;;;28.80;58.41
23223;BME280;11780;13.904;100.620;2023-02-18T03:46:06;101528.31;;;28.80;58.41
23223;BME280;11780;13.904;100.620;2023-02-18T03:48:37;101524.72;;;28.79;58.39
23223;BME280;11780;13.904;100.620;2023-02-18T03:51:07;101513.41;;;28.81;58.33
23223;BME280;11780;13.904;100.620;2023-02-18T03:53:37;101510.38;;;28.82;58.35
23223;BME280;11780;13.904;100.620;2023-02-18T03:56:07;101518.06;;;28.85;58.36
23223;BME280;11780;13.904;100.620;2023-02-18T03:58:37;101517.22;;;28.85;58.27
23223;BME280;11780;13.904;100.620;2023-02-18T04:01:08;101506.50;;;28.83;58.11
23223;BME280;11780;13.904;100.620;2023-02-18T04:03:39;101498.25;;;28.83;58.05
23223;BME280;11780;13.904;100.620;2023-02-18T04:06:09;101492.44;;;28.85;57.92
23223;BME280;11780;13.904;100.620;2023-02-18T04:08:39;101496.03;;;28.85;57.70
23223;BME280;11780;13.904;100.620;2023-02-18T04:11:09;101491.06;;;28.88;57.97
23223;BME280;11780;13.904;100.620;2023-02-18T04:13:39;101476.13;;;28.89;57.88
23223;BME280;11780;13.904;100.620;2023-02-18T04:16:09;101466.75;;;28.90;57.60
23223;BME280;11780;13.904;100.620;2023-02-18T04:18:40;101469.53;;;28.90;57.85
23223;BME280;11780;13.904;100.620;2023-02-18T04:21:10;101459.88;;;28.92;57.50
23223;BME280;11780;13.904;100.620;2023-02-18T04:23:40;101464.28;;;28.93;57.51
23223;BME280;11780;13.904;100.620;2023-02-18T04:26:10;101446.91;;;28.93;56.70
23223;BME280;11780;13.904;100.620;2023-02-18T04:28:40;101445.00;;;28.93;56.87
23223;BME280;11780;13.904;100.620;2023-02-18T04:31:10;101441.63;;;28.96;56.62
23223;BME280;11780;13.904;100.620;2023-02-18T04:33:40;101435.31;;;28.96;56.52
23223;BME280;11780;13.904;100.620;2023-02-18T04:36:11;101432.03;;;28.94;56.60
23223;BME280;11780;13.904;100.620;2023-02-18T04:38:41;101427.06;;;28.96;56.21
23223;BME280;11780;13.904;100.620;2023-02-18T04:41:11;101423.72;;;28.99;56.38
23223;BME280;11780;13.904;100.620;2023-02-18T04:43:43;101413.81;;;28.98;55.52
23223;BME280;11780;13.904;100.620;2023-02-18T04:46:13;101414.63;;;28.98;55.60
23223;BME280;11780;13.904;100.620;2023-02-18T04:48:44;101409.09;;;28.98;55.66
23223;BME280;11780;13.904;100.620;2023-02-18T04:51:14;101412.97;;;28.97;55.93
23223;BME280;11780;13.904;100.620;2023-02-18T04:53:44;101404.13;;;29.00;55.51
23223;BME280;11780;13.904;100.620;2023-02-18T04:56:14;101390.09;;;29.02;55.28
23223;BME280;11780;13.904;100.620;2023-02-18T04:58:44;101382.31;;;29.04;55.68
23223;BME280;11780;13.904;100.620;2023-02-18T05:01:15;101380.09;;;29.06;54.82
23223;BME280;11780;13.904;100.620;2023-02-18T05:03:45;101371.31;;;29.04;55.01
23223;BME280;11780;13.904;100.620;2023-02-18T05:06:14;101357.53;;;29.04;55.25
23223;BME280;11780;13.904;100.620;2023-02-18T05:08:44;101358.59;;;29.08;55.12
23223;BME280;11780;13.904;100.620;2023-02-18T05:11:14;101350.91;;;29.05;55.32
23223;BME280;11780;13.904;100.620;2023-02-18T05:13:44;101352.53;;;29.06;54.96
23223;BME280;11780;13.904;100.620;2023-02-18T05:16:14;101345.91;;;29.07;54.73
23223;BME280;11780;13.904;100.620;2023-02-18T05:18:45;101337.66;;;29.07;54.73
23223;BME280;11780;13.904;100.620;2023-02-18T05:21:15;101328.81;;;29.10;54.65
23223;BME280;11780;13.904;100.620;2023-02-18T05:23:45;101325.25;;;29.10;54.77
23223;BME280;11780;13.904;100.620;2023-02-18T05:26:15;101320.53;;;29.10;54.68
23223;BME280;11780;13.904;100.620;2023-02-18T05:28:46;101316.69;;;29.11;54.48
23223;BME280;11780;13.904;100.620;2023-02-18T05:31:17;101309.75;;;29.14;54.09
23223;BME280;11780;13.904;100.620;2023-02-18T05:33:47;101307.59;;;29.11;54.26
23223;BME280;11780;13.904;100.620;2023-02-18T05:36:18;101305.06;;;29.14;54.19
23223;BME280;11780;13.904;100.620;2023-02-18T05:38:49;101294.03;;;29.14;53.74
23223;BME280;11780;13.904;100.620;2023-02-18T05:41:19;101292.41;;;29.13;54.14
23223;BME280;11780;13.904;100.620;2023-02-18T05:43:49;101282.72;;;29.16;53.59
23223;BME280;11780;13.904;100.620;2023-02-18T05:46:37;101278.03;;;29.16;53.77
23223;BME280;11780;13.904;100.620;2023-02-18T05:49:07;101261.50;;;29.16;53.76
23223;BME280;11780;13.904;100.620;2023-02-18T05:51:38;101263.66;;;29.20;53.36
23223;BME280;11780;13.904;100.620;2023-02-18T05:54:08;101258.97;;;29.20;53.50
23223;BME280;11780;13.904;100.620;2023-02-18T05:56:37;101255.41;;;29.20;53.79
23223;BME280;11780;13.904;100.620;2023-02-18T05:59:07;101248.75;;;29.21;53.58
23223;BME280;11780;13.904;100.620;2023-02-18T06:01:38;101240.47;;;29.21;53.74
23223;BME280;11780;13.904;100.620;2023-02-18T06:04:09;101238.25;;;29.23;53.58
23223;BME280;11780;13.904;100.620;2023-02-18T06:06:41;101237.13;;;29.24;53.64
23223;BME280;11780;13.904;100.620;2023-02-18T06:09:12;101231.63;;;29.24;53.59
23223;BME280;11780;13.904;100.620;2023-02-18T06:11:42;101213.47;;;29.23;54.21
23223;BME280;11780;13.904;100.620;2023-02-18T06:14:12;101209.59;;;29.24;53.71
23223;BME280;11780;13.904;100.620;2023-02-18T06:16:42;101196.31;;;29.26;53.62
23223;BME280;11780;13.904;100.620;2023-02-18T06:19:12;101192.47;;;29.27;53.66
23223;BME280;11780;13.904;100.620;2023-02-18T06:21:43;101192.16;;;29.28;53.28
23223;BME280;11780;13.904;100.620;2023-02-18T06:24:13;101179.50;;;29.27;53.69
23223;BME280;11780;13.904;100.620;2023-02-18T06:26:43;101178.09;;;29.30;53.53
23223;BME280;11780;13.904;100.620;2023-02-18T06:29:12;101159.06;;;29.28;53.87
23223;BME280;11780;13.904;100.620;2023-02-18T06:31:42;101153.28;;;29.30;53.61
23223;BME280;11780;13.904;100.620;2023-02-18T06:34:13;101144.19;;;29.29;53.60
23223;BME280;11780;13.904;100.620;2023-02-18T06:36:44;101130.94;;;29.31;53.71
23223;BME280;11780;13.904;100.620;2023-02-18T06:39:16;101130.63;;;29.33;53.47
23223;BME280;11780;13.904;100.620;2023-02-18T06:41:46;101115.22;;;29.32;53.34
23223;BME280;11780;13.904;100.620;2023-02-18T06:44:16;101108.59;;;29.33;53.69
23223;BME280;11780;13.904;100.620;2023-02-18T06:46:47;101098.94;;;29.36;53.47
23223;BME280;11780;13.904;100.620;2023-02-18T06:49:18;101084.34;;;29.35;53.61
23223;BME280;11780;13.904;100.620;2023-02-18T06:51:48;101095.38;;;29.35;53.51
23223;BME280;11780;13.904;100.620;2023-02-18T06:54:17;101074.69;;;29.32;53.93
23223;BME280;11780;13.904;100.620;2023-02-18T06:56:47;101066.97;;;29.35;53.39
23223;BME280;11780;13.904;100.620;2023-02-18T06:59:17;101063.63;;;29.38;53.36
23223;BME280;11780;13.904;100.620;2023-02-18T07:01:47;101061.66;;;29.38;53.50
23223;BME280;11780;13.904;100.620;2023-02-18T07:04:17;101052.38;;;29.34;53.61
23223;BME280;11780;13.904;100.620;2023-02-18T07:06:48;101052.28;;;29.39;52.72
23223;BME280;11780;13.904;100.620;2023-02-18T07:09:17;101049.53;;;29.39;53.25
23223;BME280;11780;13.904;100.620;2023-02-18T07:11:47;101043.72;;;29.41;53.12
23223;BME280;11780;13.904;100.620;2023-02-18T07:14:17;101032.19;;;29.39;53.19
23223;BME280;11780;13.904;100.620;2023-02-18T07:16:47;101031.88;;;29.40;52.93
23223;BME280;11780;13.904;100.620;2023-02-18T07:19:17;101030.75;;;29.41;52.88
23223;BME280;11780;13.904;100.620;2023-02-18T07:21:47;101026.88;;;29.42;52.85
23223;BME280;11780;13.904;100.620;2023-02-18T07:24:17;101010.34;;;29.42;52.64
23223;BME280;11780;13.904;100.620;2023-02-18T07:26:47;101015.34;;;29.40;53.26
23223;BME280;11780;13.904;100.620;2023-02-18T07:29:17;101009.03;;;29.40;52.75
23223;BME280;11780;13.904;100.620;2023-02-18T07:31:47;101000.44;;;29.41;52.20
23223;BME280;11780;13.904;100.620;2023-02-18T07:34:17;100992.25;;;29.36;52.56
23223;BME280;11780;13.904;100.620;2023-02-18T07:36:47;101005.16;;;29.41;52.26
23223;BME280;11780;13.904;100.620;2023-02-18T07:39:18;100994.72;;;29.38;52.90
23223;BME280;11780;13.904;100.620;2023-02-18T07:41:49;100990.53;;;29.40;52.37
23223;BME280;11780;13.904;100.620;2023-02-18T07:44:22;100981.97;;;29.42;52.05
23223;BME280;11780;13.904;100.620;2023-02-18T07:46:56;100971.44;;;29.44;51.83
23223;BME280;11780;13.904;100.620;2023-02-18T07:49:28;100964.31;;;29.43;51.78
23223;BME280;11780;13.904;100.620;2023-02-18T07:51:58;100959.59;;;29.43;51.68
23223;BME280;11780;13.904;100.620;2023-02-18T07:54:30;100962.03;;;29.45;51.66
23223;BME280;11780;13.904;100.620;2023-02-18T07:57:00;100965.13;;;29.43;51.87
23223;BME280;11780;13.904;100.620;2023-02-18T07:59:30;100961.56;;;29.43;51.71
23223;BME280;11780;13.904;100.620;2023-02-18T08:01:59;100952.66;;;29.46;51.52
23223;BME280;11780;13.904;100.620;2023-02-18T08:04:30;100964.00;;;29.44;51.97
23223;BME280;11780;13.904;100.620;2023-02-18T08:06:59;100946.94;;;29.42;51.69
23223;BME280;11780;13.904;100.620;2023-02-18T08:09:29;100936.94;;;29.46;51.11
23223;BME280;11780;13.904;100.620;2023-02-18T08:11:59;100946.53;;;29.49;51.04
23223;BME280;11780;13.904;100.620;2023-02-18T08:14:29;100933.69;;;29.44;51.48
23223;BME280;11780;13.904;100.620;2023-02-18T08:16:59;100928.19;;;29.44;51.08
23223;BME280;11780;13.904;100.620;2023-02-18T08:19:29;100925.41;;;29.44;51.08
23223;BME280;11780;13.904;100.620;2023-02-18T08:22:02;100929.81;;;29.45;50.94
23223;BME280;11780;13.904;100.620;2023-02-18T08:24:32;100919.41;;;29.42;51.17
23223;BME280;11780;13.904;100.620;2023-02-18T08:27:02;100915.41;;;29.49;50.51
23223;BME280;11780;13.904;100.620;2023-02-18T08:29:32;100915.09;;;29.50;50.74
23223;BME280;11780;13.904;100.620;2023-02-18T08:32:02;100910.19;;;29.47;50.74
23223;BME280;11780;13.904;100.620;2023-02-18T08:34:33;100917.03;;;29.50;50.34
23223;BME280;11780;13.904;100.620;2023-02-18T08:37:03;100909.25;;;29.52;50.43
23223;BME280;11780;13.904;100.620;2023-02-18T08:39:34;100910.41;;;29.51;50.72
23223;BME280;11780;13.904;100.620;2023-02-18T08:42:06;100902.63;;;29.53;50.29
23223;BME280;11780;13.904;100.620;2023-02-18T08:44:36;100901.00;;;29.52;50.80
23223;BME280;11780;13.904;100.620;2023-02-18T08:47:06;100901.50;;;29.54;50.50
23223;BME280;11780;13.904;100.620;2023-02-18T08:49:56;100904.25;;;29.54;50.41
23223;BME280;11780;13.904;100.620;2023-02-18T08:52:26;100896.31;;;29.52;50.29
23223;BME280;11780;13.904;100.620;2023-02-18T08:54:57;100904.91;;;29.51;50.78
23223;BME280;11780;13.904;100.620;2023-02-18T08:57:27;100902.16;;;29.51;50.92
23223;BME280;11780;13.904;100.620;2023-02-18T08:59:59;100900.81;;;29.48;50.72
23223;BME280;11780;13.904;100.620;2023-02-18T09:02:28;100900.50;;;29.50;50.83
23223;BME280;11780;13.904;100.620;2023-02-18T09:04:58;100894.50;;;29.47;50.95
23223;BME280;11780;13.904;100.620;2023-02-18T09:07:28;100899.69;;;29.49;51.10
23223;BME280;11780;13.904;100.620;2023-02-18T09:09:58;100895.47;;;29.52;50.14
23223;BME280;11780;13.904;100.620;2023-02-18T09:12:28;100894.34;;;29.53;50.33
23223;BME280;11780;13.904;100.620;2023-02-18T09:14:59;100890.47;;;29.54;50.42
23223;BME280;11780;13.904;100.620;2023-02-18T09:17:29;100894.88;;;29.55;50.23
23223;BME280;11780;13.904;100.620;2023-02-18T09:20:00;100897.63;;;29.55;50.60
23223;BME280;11780;13.904;100.620;2023-02-18T09:22:30;100898.13;;;29.57;50.24
23223;BME280;11780;13.904;100.620;2023-02-18T09:25:02;100894.88;;;29.55;50.42
23223;BME280;11780;13.904;100.620;2023-02-18T09:27:32;100897.00;;;29.58;50.03
23223;BME280;11780;13.904;100.620;2023-02-18T09:30:03;100897.00;;;29.58;50.26
23223;BME280;11780;13.904;100.620;2023-02-18T09:32:34;100899.75;;;29.58;49.80
23223;BME280;11780;13.904;100.620;2023-02-18T09:35:04;100905.88;;;29.55;50.44
23223;BME280;11780;13.904;100.620;2023-02-18T09:37:34;100898.44;;;29.55;50.29
23223;BME280;11780;13.904;100.620;2023-02-18T09:40:05;100910.59;;;29.54;50.29
23223;BME280;11780;13.904;100.620;2023-02-18T09:42:36;100915.00;;;29.55;50.03
23223;BME280;11780;13.904;100.620;2023-02-18T09:45:06;100916.91;;;29.55;50.28
23223;BME280;11780;13.904;100.620;2023-02-18T09:47:42;100912.53;;;29.54;50.29
23223;BME280;11780;13.904;100.620;2023-02-18T09:50:26;100922.41;;;29.55;50.47
23223;BME280;11780;13.904;100.620;2023-02-18T09:52:58;100921.63;;;29.54;50.27
23223;BME280;11780;13.904;100.620;2023-02-18T09:55:38;100920.50;;;29.55;50.14
23223;BME280;11780;13.904;100.620;2023-02-18T09:58:19;100912.22;;;29.55;50.31
23223;BME280;11780;13.904;100.620;2023-02-18T10:03:30;100923.44;;;29.59;50.50
23223;BME280;11780;13.904;100.620;2023-02-18T10:06:10;100923.13;;;29.60;50.21
23223;BME280;11780;13.904;100.620;2023-02-18T10:08:47;100922.31;;;29.60;50.41
23223;BME280;11780;13.904;100.620;2023-02-18T10:11:34;100923.44;;;29.59;50.50
23223;BME280;11780;13.904;100.620;2023-02-18T10:14:11;100935.28;;;29.59;50.32
23223;BME280;11780;13.904;100.620;2023-02-18T10:16:44;100927.31;;;29.58;50.23
23223;BME280;11780;13.904;100.620;2023-02-18T10:21:57;100939.97;;;29.59;50.39
23223;BME280;11780;13.904;100.620;2023-02-18T10:24:43;100932.84;;;29.58;50.52
23223;BME280;11780;13.904;100.620;2023-02-18T10:27:36;100938.66;;;29.56;50.57
23223;BME280;11780;13.904;100.620;2023-02-18T10:30:32;100935.09;;;29.56;50.95
23223;BME280;11780;13.904;100.620;2023-02-18T10:33:31;100938.97;;;29.55;51.28
23223;BME280;11780;13.904;100.620;2023-02-18T10:45:07;100947.75;;;29.57;50.74
23223;BME280;11780;13.904;100.620;2023-02-18T10:50:45;100946.63;;;29.58;50.88
23223;BME280;11780;13.904;100.620;2023-02-18T10:53:39;100958.47;;;29.58;51.34
23223;BME280;11780;13.904;100.620;2023-02-18T10:56:38;100956.53;;;29.59;51.14
23223;BME280;11780;13.904;100.620;2023-02-18T11:01:42;100966.22;;;29.56;51.44
23223;BME280;11780;13.904;100.620;2023-02-18T11:04:17;100962.13;;;29.54;51.37
23223;BME280;11780;13.904;100.620;2023-02-18T11:06:51;100961.00;;;29.55;51.20
23223;BME280;11780;13.904;100.620;2023-02-18T11:09:38;100957.75;;;29.53;51.62
23223;BME280;11780;13.904;100.620;2023-02-18T11:12:25;100963.56;;;29.51;51.58
23223;BME280;11780;13.904;100.620;2023-02-18T11:15:16;100971.03;;;29.51;51.22
23223;BME280;11780;13.904;100.620;2023-02-18T11:17:49;100972.16;;;29.50;51.71
23223;BME280;11780;13.904;100.620;2023-02-18T11:20:36;100971.03;;;29.51;51.86
23223;BME280;11780;13.904;100.620;2023-02-18T11:25:38;100980.13;;;29.51;52.12
23223;BME280;11780;13.904;100.620;2023-02-18T11:30:47;100986.13;;;29.53;52.06
23223;BME280;11780;13.904;100.620;2023-02-18T11:33:24;100984.81;;;29.51;51.92
23223;BME280;11780;13.904;100.620;2023-02-18T11:36:04;100992.44;;;29.54;52.15
23223;BME280;11780;13.904;100.620;2023-02-18T11:38:45;100997.16;;;29.53;52.36
23223;BME280;11780;13.904;100.620;2023-02-18T11:41:19;101005.44;;;29.53;51.94
23223;BME280;11780;13.904;100.620;2023-02-18T11:43:52;101012.59;;;29.54;52.31
23223;BME280;11780;13.904;100.620;2023-02-18T11:46:24;101004.91;;;29.51;52.25
23223;BME280;11780;13.904;100.620;2023-02-18T11:48:55;101010.94;;;29.53;52.44
23223;BME280;11780;13.904;100.620;2023-02-18T11:51:39;101019.41;;;29.57;52.30
23223;BME280;11780;13.904;100.620;2023-02-18T11:54:24;101020.53;;;29.56;52.56
23223;BME280;11780;13.904;100.620;2023-02-18T11:59:34;101027.06;;;29.60;52.11
23223;BME280;11780;13.904;100.620;2023-02-18T12:04:51;101041.44;;;29.71;52.51
23223;BME280;11780;13.904;100.620;2023-02-18T12:10:44;101041.97;;;29.73;53.08
23223;BME280;11780;13.904;100.620;2023-02-18T12:13:55;101051.66;;;29.70;53.53
23223;BME280;11780;13.904;100.620;2023-02-18T12:19:40;101059.63;;;29.72;53.89
23223;BME280;11780;13.904;100.620;2023-02-18T12:22:42;101060.75;;;29.71;53.88
23223;BME280;11780;13.904;100.620;2023-02-18T12:31:36;101075.06;;;29.73;54.26
23223;BME280;11780;13.904;100.620;2023-02-18T12:34:19;101076.47;;;29.70;54.57
23223;BME280;11780;13.904;100.620;2023-02-18T12:37:22;101080.06;;;29.71;54.34
23223;BME280;11780;13.904;100.620;2023-02-18T12:45:30;101091.09;;;29.71;54.63
23223;BME280;11780;13.904;100.620;2023-02-18T12:48:39;101097.41;;;29.71;54.48
23223;BME280;11780;13.904;100.620;2023-02-18T13:03:09;101119.03;;;29.78;54.41
23223;BME280;11780;13.904;100.620;2023-02-18T13:15:10;101146.84;;;29.82;54.47
23223;BME280;11780;13.904;100.620;2023-02-18T13:17:43;101148.25;;;29.79;54.58
23223;BME280;11780;13.904;100.620;2023-02-18T13:20:22;101157.88;;;29.82;54.69
23223;BME280;11780;13.904;100.620;2023-02-18T13:22:55;101156.22;;;29.81;54.93
23223;BME280;11780;13.904;100.620;2023-02-18T13:25:36;101156.00;;;29.77;54.89
23223;BME280;11780;13.904;100.620;2023-02-18T13:28:17;101160.41;;;29.78;55.19
23223;BME280;11780;13.904;100.620;2023-02-18T13:33:46;101167.97;;;29.72;55.10
23223;BME280;11780;13.904;100.620;2023-02-18T13:39:11;101171.97;;;29.66;55.58
23223;BME280;11780;13.904;100.620;2023-02-18T13:41:50;101174.28;;;29.59;55.58
23223;BME280;11780;13.904;100.620;2023-02-18T13:46:55;101180.72;;;29.68;55.69
23223;BME280;11780;13.904;100.620;2023-02-18T13:49:34;101187.06;;;29.69;56.04
23223;BME280;11780;13.904;100.620;2023-02-18T13:52:17;101189.50;;;29.70;56.08
23223;BME280;11780;13.904;100.620;2023-02-18T13:54:48;101198.81;;;29.74;56.10
23223;BME280;11780;13.904;100.620;2023-02-18T13:57:21;101199.44;;;29.85;55.83
23223;BME280;11780;13.904;100.620;2023-02-18T14:00:01;101199.44;;;29.85;55.94
23223;BME280;11780;13.904;100.620;2023-02-18T14:02:34;101209.53;;;29.90;56.17
23223;BME280;11780;13.904;100.620;2023-02-18T14:05:39;101206.28;;;29.88;56.06
23223;BME280;11780;13.904;100.620;2023-02-18T14:08:34;101208.75;;;29.89;55.98
23223;BME280;11780;13.904;100.620;2023-02-18T14:13:55;101213.75;;;29.87;56.51
23223;BME280;11780;13.904;100.620;2023-02-18T14:22:43;101225.56;;;29.88;56.29
23223;BME280;11780;13.904;100.620;2023-02-18T14:27:43;101243.25;;;29.87;56.30
23223;BME280;11780;13.904;100.620;2023-02-18T14:30:39;101244.06;;;29.87;56.59
23223;BME280;11780;13.904;100.620;2023-02-18T14:33:14;101249.78;;;29.91;56.50
23223;BME280;11780;13.904;100.620;2023-02-18T14:42:49;101255.31;;;29.91;56.59
23223;BME280;11780;13.904;100.620;2023-02-18T14:51:24;101266.63;;;29.75;57.54
23223;BME280;11780;13.904;100.620;2023-02-18T14:54:03;101273.56;;;29.73;57.37
23223;BME280;11780;13.904;100.620;2023-02-18T14:56:38;101283.81;;;29.86;56.85
23223;BME280;11780;13.904;100.620;2023-02-18T14:59:12;101273.56;;;29.87;56.74
23223;BME280;11780;13.904;100.620;2023-02-18T15:01:45;101281.97;;;29.82;56.63
23223;BME280;11780;13.904;100.620;2023-02-18T15:04:16;101288.38;;;29.77;56.77
23223;BME280;11780;13.904;100.620;2023-02-18T15:07:07;101299.63;;;29.81;56.84
23223;BME280;11780;13.904;100.620;2023-02-18T15:09:49;101288.09;;;29.78;56.52
23223;BME280;11780;13.904;100.620;2023-02-18T15:12:22;101303.59;;;29.74;56.76
23223;BME280;11780;13.904;100.620;2023-02-18T15:14:58;101294.50;;;29.74;56.93
23223;BME280;11780;13.904;100.620;2023-02-18T15:17:29;101304.50;;;29.70;57.07
23223;BME280;11780;13.904;100.620;2023-02-18T15:20:04;101303.66;;;29.69;57.21
23223;BME280;11780;13.904;100.620;2023-02-18T15:22:35;101302.03;;;29.68;57.11
23223;BME280;11780;13.904;100.620;2023-02-18T15:25:08;101297.34;;;29.69;57.02